createdAt,value
2023-04-16T00:01:36.999Z,5.81
2023-04-16T00:04:03.721Z,6.00
2023-04-16T00:06:30.290Z,5.95
2023-04-16T00:08:56.628Z,6.17
2023-04-16T00:11:23.041Z,5.82
2023-04-16T00:13:49.418Z,5.78
2023-04-16T00:16:15.883Z,5.59
2023-04-16T00:18:42.356Z,5.88
2023-04-16T00:21:08.755Z,6.71
2023-04-16T00:23:35.186Z,7.40
2023-04-16T00:26:01.596Z,6.33
2023-04-16T00:28:27.968Z,5.89
2023-04-16T00:30:54.364Z,5.87
2023-04-16T00:33:20.864Z,5.96
2023-04-16T00:35:47.292Z,5.63
2023-04-16T00:38:13.690Z,5.72
2023-04-16T00:40:40.058Z,5.93
2023-04-16T00:43:06.462Z,5.64
2023-04-16T00:45:32.866Z,5.56
2023-04-16T00:48:00.529Z,5.49
2023-04-16T00:50:27.138Z,5.38
2023-04-16T00:52:53.712Z,5.07
2023-04-16T00:55:20.070Z,5.46
2023-04-16T00:57:46.465Z,5.15
2023-04-16T01:00:12.827Z,5.17
2023-04-16T01:02:39.334Z,5.30
2023-04-16T01:05:05.806Z,5.52
2023-04-16T01:07:32.168Z,5.66
2023-04-16T01:09:58.537Z,6.21
2023-04-16T01:12:25.005Z,5.47
2023-04-16T01:14:51.376Z,5.66
2023-04-16T01:17:17.773Z,5.30
2023-04-16T01:19:44.191Z,5.45
2023-04-16T01:22:10.556Z,5.13
2023-04-16T01:24:36.973Z,5.24
2023-04-16T01:27:03.370Z,5.30
2023-04-16T01:29:29.760Z,5.52
2023-04-16T01:31:56.138Z,5.18
2023-04-16T01:34:22.573Z,5.35
2023-04-16T01:36:48.970Z,5.86
2023-04-16T01:39:15.353Z,6.33
2023-04-16T01:41:41.883Z,6.53
2023-04-16T01:44:08.272Z,6.65
2023-04-16T01:46:34.673Z,7.13
2023-04-16T01:49:01.104Z,6.77
2023-04-16T01:51:27.445Z,7.07
2023-04-16T01:53:53.850Z,7.93
2023-04-16T01:56:20.242Z,7.87
2023-04-16T01:58:46.641Z,7.56
2023-04-16T02:01:13.048Z,7.78
2023-04-16T02:03:39.677Z,7.44
2023-04-16T02:06:06.211Z,7.89
2023-04-16T02:08:32.620Z,7.90
2023-04-16T02:10:59.024Z,7.62
2023-04-16T02:13:27.184Z,7.66
2023-04-16T02:15:53.589Z,7.97
2023-04-16T02:18:20.028Z,7.43
2023-04-16T02:20:46.416Z,7.35
2023-04-16T02:23:12.839Z,7.31
2023-04-16T02:25:39.205Z,7.34
2023-04-16T02:28:05.594Z,7.86
2023-04-16T02:30:31.967Z,7.42
2023-04-16T02:32:58.575Z,7.77
2023-04-16T02:35:24.947Z,7.99
2023-04-16T02:37:51.307Z,7.88
2023-04-16T02:40:17.671Z,8.04
2023-04-16T02:42:44.024Z,8.39
2023-04-16T02:45:10.363Z,8.50
2023-04-16T02:47:36.801Z,8.74
2023-04-16T02:50:03.177Z,9.20
2023-04-16T02:52:29.559Z,9.45
2023-04-16T02:54:55.956Z,9.87
2023-04-16T02:57:22.335Z,10.18
2023-04-16T02:59:48.777Z,10.31
2023-04-16T03:02:15.189Z,10.26
2023-04-16T03:04:41.744Z,10.88
2023-04-16T03:07:08.244Z,11.09
2023-04-16T03:09:34.683Z,11.65
2023-04-16T03:12:01.059Z,12.11
2023-04-16T03:14:27.446Z,12.12
2023-04-16T03:16:53.832Z,14.52
2023-04-16T03:19:20.209Z,13.23
2023-04-16T03:21:46.581Z,10.69
2023-04-16T03:24:12.981Z,8.16
2023-04-16T03:26:39.334Z,6.39
2023-04-16T03:29:05.700Z,6.25
2023-04-16T03:31:32.162Z,6.35
2023-04-16T03:33:58.540Z,5.99
2023-04-16T03:36:24.904Z,5.66
2023-04-16T03:38:51.323Z,5.37
2023-04-16T03:41:17.686Z,5.98
2023-04-16T03:43:44.056Z,5.62
2023-04-16T03:46:10.489Z,7.82
2023-04-16T03:48:36.940Z,7.63
2023-04-16T03:51:03.332Z,7.57
2023-04-16T03:53:29.721Z,7.06
2023-04-16T03:55:56.181Z,8.04
2023-04-16T03:58:22.564Z,7.75
2023-04-16T04:00:48.934Z,7.52
2023-04-16T04:03:15.445Z,8.28
2023-04-16T04:05:41.995Z,8.36
2023-04-16T04:08:08.372Z,8.65
2023-04-16T04:10:34.743Z,8.78
2023-04-16T04:13:01.176Z,8.84
2023-04-16T04:15:27.555Z,8.11
2023-04-16T04:17:54.001Z,7.15
2023-04-16T04:20:20.462Z,6.73
2023-04-16T04:22:46.877Z,7.14
2023-04-16T04:25:13.308Z,6.60
2023-04-16T04:27:39.660Z,6.56
2023-04-16T04:30:06.033Z,6.52
2023-04-16T04:32:32.469Z,6.11
2023-04-16T04:34:58.929Z,6.06
2023-04-16T04:37:25.298Z,6.26
2023-04-16T04:39:51.688Z,6.00
2023-04-16T04:42:18.087Z,6.04
2023-04-16T04:44:44.498Z,5.97
2023-04-16T04:47:10.890Z,6.21
2023-04-16T04:49:37.288Z,5.37
2023-04-16T04:52:03.728Z,5.32
2023-04-16T04:54:30.098Z,5.25
2023-04-16T04:56:56.489Z,5.11
2023-04-16T04:59:22.852Z,5.42
2023-04-16T05:01:49.276Z,5.23
2023-04-16T05:04:15.733Z,4.82
2023-04-16T05:06:42.277Z,4.71
2023-04-16T05:09:08.810Z,4.97
2023-04-16T05:11:35.447Z,5.30
2023-04-16T05:14:01.805Z,5.27
2023-04-16T05:16:28.232Z,5.17
2023-04-16T05:18:54.642Z,5.22
2023-04-16T05:21:21.006Z,5.15
2023-04-16T05:23:47.381Z,4.73
2023-04-16T05:26:13.891Z,5.05
2023-04-16T05:28:40.280Z,4.88
2023-04-16T05:31:06.649Z,4.78
2023-04-16T05:33:33.080Z,4.94
2023-04-16T05:35:59.470Z,5.92
2023-04-16T05:38:25.920Z,5.13
2023-04-16T05:40:52.487Z,5.08
2023-04-16T05:43:18.851Z,4.72
2023-04-16T05:45:45.240Z,4.52
2023-04-16T05:48:11.635Z,4.53
2023-04-16T05:50:38.070Z,4.23
2023-04-16T05:53:04.465Z,4.65
2023-04-16T05:55:30.854Z,4.45
2023-04-16T05:57:57.418Z,4.59
2023-04-16T06:00:23.814Z,4.26
2023-04-16T06:02:50.365Z,4.53
2023-04-16T06:05:16.975Z,4.87
2023-04-16T06:07:43.437Z,4.65
2023-04-16T06:10:09.865Z,4.57
2023-04-16T06:12:36.296Z,4.41
2023-04-16T06:15:02.874Z,4.41
2023-04-16T06:17:29.282Z,4.99
2023-04-16T06:19:55.691Z,4.83
2023-04-16T06:22:22.223Z,4.54
2023-04-16T06:24:48.618Z,4.56
2023-04-16T06:27:15.092Z,4.57
2023-04-16T06:29:42.014Z,4.67
2023-04-16T06:32:08.582Z,5.21
2023-04-16T06:34:35.015Z,5.77
2023-04-16T06:37:01.403Z,6.37
2023-04-16T06:39:27.787Z,5.97
2023-04-16T06:41:54.164Z,6.27
2023-04-16T06:44:20.539Z,6.42
2023-04-16T06:46:46.931Z,7.09
2023-04-16T06:49:13.391Z,7.35
2023-04-16T06:51:39.778Z,7.50
2023-04-16T06:54:06.199Z,7.39
2023-04-16T06:56:32.574Z,7.67
2023-04-16T06:58:58.944Z,7.62
2023-04-16T07:01:25.418Z,7.70
2023-04-16T07:03:52.076Z,7.68
2023-04-16T07:06:18.740Z,8.21
2023-04-16T07:08:45.108Z,7.95
2023-04-16T07:11:11.731Z,7.79
2023-04-16T07:13:38.175Z,8.90
2023-04-16T07:16:04.905Z,9.76
2023-04-16T07:18:31.321Z,10.59
2023-04-16T07:20:57.755Z,10.22
2023-04-16T07:23:24.133Z,10.42
2023-04-16T07:25:50.544Z,11.08
2023-04-16T07:28:17.008Z,11.33
2023-04-16T07:30:43.724Z,11.55
2023-04-16T07:33:10.153Z,11.92
2023-04-16T07:35:36.608Z,13.54
2023-04-16T07:38:03.040Z,15.16
2023-04-16T07:40:29.646Z,14.03
2023-04-16T07:42:56.063Z,13.33
2023-04-16T07:45:22.598Z,11.78
2023-04-16T07:47:49.105Z,12.12
2023-04-16T07:50:15.778Z,11.38
2023-04-16T07:52:42.233Z,10.69
2023-04-16T07:55:08.681Z,10.29
2023-04-16T07:57:35.244Z,10.05
2023-04-16T08:00:01.892Z,9.83
2023-04-16T08:02:28.710Z,14.22
2023-04-16T08:04:55.584Z,12.55
2023-04-16T08:07:22.060Z,11.52
2023-04-16T08:09:48.459Z,11.05
2023-04-16T08:12:14.827Z,10.34
2023-04-16T08:14:41.303Z,10.63
2023-04-16T08:17:07.734Z,10.77
2023-04-16T08:19:34.135Z,9.49
2023-04-16T08:22:00.598Z,8.85
2023-04-16T08:24:27.077Z,8.19
2023-04-16T08:26:53.503Z,7.99
2023-04-16T08:29:19.958Z,7.69
2023-04-16T08:31:46.420Z,7.70
2023-04-16T08:34:12.945Z,7.80
2023-04-16T08:36:39.359Z,7.68
2023-04-16T08:39:05.775Z,7.73
2023-04-16T08:41:32.176Z,7.67
2023-04-16T08:43:58.687Z,7.54
2023-04-16T08:46:25.077Z,8.09
2023-04-16T08:48:51.466Z,8.33
2023-04-16T08:51:17.912Z,8.25
2023-04-16T08:53:44.297Z,8.44
2023-04-16T08:56:10.721Z,8.21
2023-04-16T08:58:37.114Z,7.42
2023-04-16T09:01:03.526Z,8.17
2023-04-16T09:03:30.035Z,7.95
2023-04-16T09:05:56.525Z,7.37
2023-04-16T09:08:22.965Z,8.00
2023-04-16T09:10:49.357Z,8.29
2023-04-16T09:13:15.775Z,7.82
2023-04-16T09:15:42.155Z,7.62
2023-04-16T09:18:08.541Z,7.76
2023-04-16T09:20:34.958Z,8.18
2023-04-16T09:23:01.393Z,7.79
2023-04-16T09:25:27.802Z,7.53
2023-04-16T09:27:54.171Z,6.78
2023-04-16T09:30:20.575Z,6.97
2023-04-16T09:32:47.012Z,6.62
2023-04-16T09:35:13.410Z,6.79
2023-04-16T09:37:39.885Z,6.90
2023-04-16T09:40:06.293Z,6.53
2023-04-16T09:42:32.683Z,6.48
2023-04-16T09:45:00.816Z,6.39
2023-04-16T09:47:28.752Z,6.24
2023-04-16T09:49:55.157Z,5.72
2023-04-16T09:52:21.553Z,5.32
2023-04-16T09:54:48.023Z,5.46
2023-04-16T09:57:14.434Z,5.56
2023-04-16T09:59:40.811Z,5.80
2023-04-16T10:02:14.514Z,5.99
2023-04-16T10:04:42.777Z,6.12
2023-04-16T10:07:09.278Z,6.04
2023-04-16T10:09:35.660Z,5.97
2023-04-16T10:12:02.054Z,6.51
2023-04-16T10:14:28.430Z,8.90
2023-04-16T10:16:54.908Z,6.55
2023-04-16T10:19:22.492Z,6.52
2023-04-16T10:21:48.985Z,6.66
2023-04-16T10:24:15.366Z,6.56
2023-04-16T10:26:41.790Z,6.05
2023-04-16T10:29:08.243Z,6.30
2023-04-16T10:31:34.699Z,6.78
2023-04-16T10:34:01.194Z,7.02
2023-04-16T10:36:27.679Z,6.55
2023-04-16T10:38:54.077Z,6.45
2023-04-16T10:41:20.453Z,6.22
2023-04-16T10:43:46.986Z,6.29
2023-04-16T10:46:13.397Z,5.85
2023-04-16T10:48:49.649Z,5.86
2023-04-16T10:51:17.308Z,5.95
2023-04-16T10:53:43.727Z,6.17
2023-04-16T10:56:10.129Z,5.97
2023-04-16T10:58:36.537Z,5.94
2023-04-16T11:01:02.903Z,6.57
2023-04-16T11:03:29.496Z,6.49
2023-04-16T11:05:55.970Z,6.35
2023-04-16T11:08:23.389Z,6.29
2023-04-16T11:10:51.106Z,6.32
2023-04-16T11:13:17.696Z,6.21
2023-04-16T11:15:44.171Z,5.77
2023-04-16T11:18:10.676Z,5.55
2023-04-16T11:20:37.075Z,5.23
2023-04-16T11:23:03.485Z,5.50
2023-04-16T11:25:30.012Z,5.72
2023-04-16T11:27:56.443Z,5.80
2023-04-16T11:30:22.824Z,5.62
2023-04-16T11:32:49.268Z,5.21
2023-04-16T11:35:15.700Z,5.43
2023-04-16T11:37:42.135Z,5.39
2023-04-16T11:40:08.521Z,4.83
2023-04-16T11:42:34.999Z,4.98
2023-04-16T11:45:01.537Z,5.12
2023-04-16T11:47:28.052Z,5.07
2023-04-16T11:49:54.472Z,4.90
2023-04-16T11:52:20.907Z,5.23
2023-04-16T11:54:47.356Z,5.16
2023-04-16T11:57:13.923Z,5.49
2023-04-16T12:00:02.012Z,5.16
2023-04-16T12:02:26.809Z,5.34
2023-04-16T12:04:53.282Z,4.96
2023-04-16T12:07:19.759Z,5.25
2023-04-16T12:09:46.157Z,5.13
2023-04-16T12:12:12.584Z,5.15
2023-04-16T12:14:38.969Z,5.52
2023-04-16T12:17:05.425Z,5.14
2023-04-16T12:19:31.825Z,5.23
2023-04-16T12:21:58.197Z,5.38
2023-04-16T12:24:24.587Z,5.24
2023-04-16T12:26:51.029Z,5.54
2023-04-16T12:29:17.540Z,5.67
2023-04-16T12:31:43.949Z,5.56
2023-04-16T12:34:10.409Z,5.53
2023-04-16T12:36:36.827Z,5.33
2023-04-16T12:39:03.192Z,5.61
2023-04-16T12:41:29.568Z,5.34
2023-04-16T12:43:56.043Z,5.41
2023-04-16T12:46:22.642Z,5.59
2023-04-16T12:48:49.180Z,5.88
2023-04-16T12:51:15.550Z,5.23
2023-04-16T12:53:42.037Z,5.65
2023-04-16T12:56:08.581Z,5.49
2023-04-16T12:58:35.012Z,5.65
2023-04-16T13:01:01.374Z,5.87
2023-04-16T13:03:27.958Z,5.51
2023-04-16T13:05:54.413Z,5.33
2023-04-16T13:08:20.795Z,5.61
2023-04-16T13:10:47.240Z,5.51
2023-04-16T13:13:13.605Z,5.65
2023-04-16T13:15:40.066Z,5.32
2023-04-16T13:18:06.650Z,5.58
2023-04-16T13:20:33.067Z,5.64
2023-04-16T13:22:59.473Z,5.96
2023-04-16T13:25:26.110Z,5.95
2023-04-16T13:27:52.528Z,5.98
2023-04-16T13:30:18.931Z,5.94
2023-04-16T13:32:45.370Z,6.18
2023-04-16T13:35:11.847Z,6.44
2023-04-16T13:37:38.249Z,6.53
2023-04-16T13:40:04.760Z,6.12
2023-04-16T13:42:31.275Z,5.93
2023-04-16T13:44:57.660Z,5.87
2023-04-16T13:47:24.132Z,5.53
2023-04-16T13:49:50.696Z,5.84
2023-04-16T13:52:17.087Z,6.30
2023-04-16T13:54:43.484Z,6.48
2023-04-16T13:57:09.965Z,6.19
2023-04-16T13:59:36.388Z,5.95
2023-04-16T14:02:02.877Z,6.49
2023-04-16T14:04:29.567Z,6.98
2023-04-16T14:06:56.026Z,6.80
2023-04-16T14:09:23.836Z,6.72
2023-04-16T14:11:50.515Z,6.67
2023-04-16T14:14:16.888Z,6.67
2023-04-16T14:16:43.420Z,7.23
2023-04-16T14:19:10.222Z,7.42
2023-04-16T14:21:36.810Z,7.62
2023-04-16T14:24:03.424Z,7.00
2023-04-16T14:26:29.846Z,7.22
2023-04-16T14:28:56.367Z,7.23
2023-04-16T14:31:22.923Z,7.87
2023-04-16T14:33:49.351Z,6.86
2023-04-16T14:36:15.834Z,7.11
2023-04-16T14:38:42.283Z,7.18
2023-04-16T14:41:08.801Z,6.58
2023-04-16T14:43:35.201Z,6.59
2023-04-16T14:46:01.715Z,6.71
2023-04-16T14:48:28.170Z,6.52
2023-04-16T14:50:54.618Z,6.39
2023-04-16T14:53:21.097Z,6.67
2023-04-16T14:55:47.583Z,6.88
2023-04-16T14:58:14.149Z,6.90
2023-04-16T15:00:40.530Z,7.10
2023-04-16T15:03:07.211Z,6.64
2023-04-16T15:05:34.003Z,6.55
2023-04-16T15:08:00.393Z,6.32
2023-04-16T15:10:26.815Z,7.20
2023-04-16T15:12:53.203Z,6.85
2023-04-16T15:15:19.649Z,6.37
2023-04-16T15:17:46.105Z,6.22
2023-04-16T15:20:12.697Z,5.50
2023-04-16T15:22:39.632Z,5.55
2023-04-16T15:25:06.352Z,5.77
2023-04-16T15:27:32.834Z,6.07
2023-04-16T15:29:59.267Z,5.79
2023-04-16T15:32:25.735Z,6.48
2023-04-16T15:34:52.181Z,6.12
2023-04-16T15:37:18.713Z,6.32
2023-04-16T15:39:45.139Z,5.76
2023-04-16T15:42:11.580Z,5.79
2023-04-16T15:44:38.051Z,5.99
2023-04-16T15:47:04.595Z,6.32
2023-04-16T15:49:30.989Z,6.02
2023-04-16T15:51:57.583Z,6.00
2023-04-16T15:54:24.039Z,5.99
2023-04-16T15:56:50.450Z,6.18
2023-04-16T15:59:16.830Z,5.98
2023-04-16T16:01:43.233Z,5.95
2023-04-16T16:04:10.545Z,6.03
2023-04-16T16:06:37.098Z,5.88
2023-04-16T16:09:03.468Z,6.03
2023-04-16T16:11:30.010Z,5.63
2023-04-16T16:13:56.396Z,5.81
2023-04-16T16:16:22.866Z,5.21
2023-04-16T16:18:49.274Z,5.44
2023-04-16T16:21:15.944Z,5.67
2023-04-16T16:23:42.517Z,5.64
2023-04-16T16:26:09.070Z,5.76
2023-04-16T16:28:35.520Z,5.51
2023-04-16T16:31:02.075Z,5.90
2023-04-16T16:33:28.765Z,5.77
2023-04-16T16:35:55.247Z,5.94
2023-04-16T16:38:21.955Z,6.78
2023-04-16T16:40:48.429Z,6.17
2023-04-16T16:43:15.047Z,5.62
2023-04-16T16:45:41.504Z,6.58
2023-04-16T16:48:07.942Z,6.24
2023-04-16T16:50:34.401Z,6.33
2023-04-16T16:53:00.865Z,6.29
2023-04-16T16:55:27.277Z,6.52
2023-04-16T16:57:53.762Z,6.49
2023-04-16T17:00:20.148Z,6.69
2023-04-16T17:02:48.141Z,5.94
2023-04-16T17:05:14.649Z,6.03
2023-04-16T17:07:41.907Z,6.48
2023-04-16T17:10:08.294Z,6.20
2023-04-16T17:12:34.664Z,6.21
2023-04-16T17:15:01.032Z,6.39
2023-04-16T17:17:27.498Z,5.98
2023-04-16T17:19:54.018Z,6.12
2023-04-16T17:22:20.921Z,6.64
2023-04-16T17:24:47.425Z,14.78
2023-04-16T17:27:15.164Z,19.51
2023-04-16T17:29:42.076Z,7.04
2023-04-16T17:32:08.674Z,6.78
2023-04-16T17:34:35.252Z,7.39
2023-04-16T17:37:01.727Z,6.60
2023-04-16T17:39:30.778Z,6.71
2023-04-16T17:41:57.311Z,7.29
2023-04-16T17:44:23.735Z,6.66
2023-04-16T17:46:50.167Z,6.65
2023-04-16T17:49:16.619Z,7.04
2023-04-16T17:51:43.076Z,8.20
2023-04-16T17:54:09.729Z,7.06
2023-04-16T17:56:36.600Z,6.58
2023-04-16T17:59:03.100Z,5.58
2023-04-16T18:01:29.537Z,5.93
2023-04-16T18:03:56.213Z,6.59
2023-04-16T18:06:22.764Z,6.07
2023-04-16T18:08:49.170Z,5.62
2023-04-16T18:11:15.557Z,5.68
2023-04-16T18:13:41.985Z,5.77
2023-04-16T18:16:08.409Z,5.70
2023-04-16T18:18:37.393Z,5.20
2023-04-16T18:21:03.787Z,5.36
2023-04-16T18:23:30.197Z,5.23
2023-04-16T18:25:56.633Z,5.11
2023-04-16T18:28:23.013Z,5.24
2023-04-16T18:30:50.938Z,4.91
2023-04-16T18:35:46.926Z,4.49
2023-04-16T18:38:13.373Z,4.20
2023-04-16T18:40:39.940Z,4.40
2023-04-16T18:43:06.437Z,4.50
2023-04-16T18:45:34.233Z,4.31
2023-04-16T18:48:01.098Z,3.94
2023-04-16T18:50:27.502Z,3.69
2023-04-16T18:52:58.829Z,3.82
2023-04-16T18:55:34.740Z,3.28
2023-04-16T18:58:04.117Z,3.19
2023-04-16T19:00:30.780Z,3.23
2023-04-16T19:02:59.648Z,2.93
2023-04-16T19:05:36.709Z,2.84
2023-04-16T19:08:06.142Z,3.20
2023-04-16T19:10:35.205Z,2.86
2023-04-16T19:13:01.623Z,2.75
2023-04-16T19:15:32.127Z,2.62
2023-04-16T19:18:03.809Z,2.66
2023-04-16T19:20:34.301Z,2.45
2023-04-16T19:23:03.947Z,2.55
2023-04-16T19:25:33.137Z,2.29
2023-04-16T19:30:40.677Z,2.26
2023-04-16T19:33:07.134Z,2.35
2023-04-16T19:35:33.717Z,2.26
2023-04-16T19:38:00.128Z,2.30
2023-04-16T19:40:30.257Z,2.68
2023-04-16T19:42:59.954Z,2.61
2023-04-16T19:45:26.523Z,2.68
2023-04-16T19:47:53.038Z,2.79
2023-04-16T19:50:22.489Z,2.74
2023-04-16T19:52:49.146Z,2.81
2023-04-16T19:55:18.658Z,2.96
2023-04-16T19:57:45.085Z,3.27
2023-04-16T20:00:11.816Z,3.61
2023-04-16T20:02:43.760Z,3.63
2023-04-16T20:05:11.632Z,3.46
2023-04-16T20:07:38.150Z,3.69
2023-04-16T20:10:08.388Z,3.58
2023-04-16T20:12:35.050Z,3.64
2023-04-16T20:15:04.227Z,3.66
2023-04-16T20:17:31.338Z,3.59
2023-04-16T20:19:57.813Z,3.44
2023-04-16T20:22:24.508Z,3.45
2023-04-16T20:24:52.697Z,3.49
2023-04-16T20:27:21.987Z,3.96
2023-04-16T20:29:48.431Z,3.99
2023-04-16T20:32:14.933Z,4.02
2023-04-16T20:34:41.520Z,3.29
2023-04-16T20:37:08.218Z,3.24
2023-04-16T20:39:34.625Z,3.40
2023-04-16T20:42:01.196Z,2.96
2023-04-16T20:44:27.624Z,2.99
2023-04-16T20:46:54.102Z,2.44
2023-04-16T20:49:20.557Z,2.46
2023-04-16T20:51:47.118Z,2.62
2023-04-16T20:54:13.582Z,2.36
2023-04-16T20:56:39.948Z,2.22
2023-04-16T20:59:06.530Z,2.30
2023-04-16T21:01:33.091Z,2.27
2023-04-16T21:03:59.855Z,2.37
2023-04-16T21:06:26.503Z,2.44
2023-04-16T21:08:53.143Z,2.42
2023-04-16T21:11:19.552Z,2.29
2023-04-16T21:13:47.387Z,2.09
2023-04-16T21:16:15.463Z,2.04
2023-04-16T21:18:41.957Z,2.19
2023-04-16T21:21:08.556Z,1.99
2023-04-16T21:23:35.040Z,2.47
2023-04-16T21:26:01.486Z,2.57
2023-04-16T21:28:28.033Z,2.51
2023-04-16T21:30:54.388Z,2.35
2023-04-16T21:33:20.797Z,2.37
2023-04-16T21:35:47.569Z,2.17
2023-04-16T21:38:13.933Z,2.12
2023-04-16T21:40:40.322Z,2.04
2023-04-16T21:43:09.736Z,1.95
2023-04-16T21:45:36.255Z,2.14
2023-04-16T21:48:02.694Z,2.15
2023-04-16T21:50:29.355Z,2.33
2023-04-16T21:52:55.768Z,2.52
2023-04-16T21:55:22.144Z,2.32
2023-04-16T21:57:48.516Z,2.22
2023-04-16T22:00:14.922Z,2.23
2023-04-16T22:02:41.409Z,2.36
2023-04-16T22:05:07.952Z,2.00
2023-04-16T22:07:34.357Z,2.05
2023-04-16T22:10:00.791Z,2.33
2023-04-16T22:12:27.487Z,1.96
2023-04-16T22:15:02.501Z,2.07
2023-04-16T22:17:29.668Z,2.09
2023-04-16T22:19:56.058Z,1.92
2023-04-16T22:22:22.433Z,2.09
2023-04-16T22:24:48.812Z,2.19
2023-04-16T22:27:15.192Z,2.15
2023-04-16T22:29:41.666Z,2.32
2023-04-16T22:32:08.076Z,2.41
2023-04-16T22:34:34.507Z,2.23
2023-04-16T22:37:00.955Z,2.27
2023-04-16T22:39:27.360Z,2.48
2023-04-16T22:41:53.731Z,2.15
2023-04-16T22:44:20.073Z,2.48
2023-04-16T22:46:46.488Z,2.41
2023-04-16T22:49:13.113Z,2.63
2023-04-16T22:51:39.682Z,2.70
2023-04-16T22:54:06.243Z,2.79
2023-04-16T22:56:32.656Z,3.05
2023-04-16T22:58:59.068Z,2.98
2023-04-16T23:01:25.593Z,3.13
2023-04-16T23:03:52.196Z,3.41
2023-04-16T23:06:18.614Z,3.48
2023-04-16T23:08:45.075Z,3.32
2023-04-16T23:11:11.497Z,3.43
2023-04-16T23:13:37.851Z,3.72
2023-04-16T23:16:04.318Z,3.79
2023-04-16T23:18:30.739Z,3.64
2023-04-16T23:20:57.120Z,3.91
2023-04-16T23:23:23.527Z,3.93
2023-04-16T23:25:49.911Z,3.93
2023-04-16T23:28:16.288Z,3.63
2023-04-16T23:30:42.710Z,3.82
2023-04-16T23:33:09.340Z,3.94
2023-04-16T23:35:35.750Z,3.89
2023-04-16T23:38:02.139Z,4.08
2023-04-16T23:40:28.514Z,3.88
2023-04-16T23:42:54.873Z,3.87
2023-04-16T23:45:21.285Z,4.01
2023-04-16T23:47:47.720Z,3.86
2023-04-16T23:50:14.151Z,4.21
2023-04-16T23:52:40.554Z,4.30
2023-04-16T23:55:07.000Z,4.00
2023-04-16T23:57:33.405Z,3.86
2023-04-16T23:59:59.775Z,4.10
